createdAt,value
2023-01-20T00:03:58.379Z,3.24
2023-01-20T00:09:04.531Z,5.43
2023-01-20T00:14:10.721Z,4.06
2023-01-20T00:19:16.795Z,4.36
2023-01-20T00:24:23.068Z,4.55
2023-01-20T00:29:29.245Z,5.01
2023-01-20T00:34:35.571Z,6.20
2023-01-20T00:39:41.675Z,6.73
2023-01-20T00:44:47.940Z,6.69
2023-01-20T00:49:54.099Z,6.17
2023-01-20T00:55:00.290Z,6.03
2023-01-20T01:00:06.385Z,7.73
2023-01-20T01:05:12.902Z,7.32
2023-01-20T01:10:18.809Z,9.91
2023-01-20T01:15:25.042Z,11.86
2023-01-20T01:20:31.147Z,14.12
2023-01-20T01:25:37.360Z,13.28
2023-01-20T01:30:43.610Z,14.30
2023-01-20T01:35:49.828Z,16.43
2023-01-20T01:40:55.892Z,18.01
2023-01-20T01:46:02.122Z,17.59
2023-01-20T01:51:08.247Z,17.48
2023-01-20T01:56:14.481Z,19.82
2023-01-20T02:01:20.799Z,20.83
2023-01-20T02:06:27.670Z,20.97
2023-01-20T02:11:33.817Z,20.64
2023-01-20T02:16:40.164Z,18.97
2023-01-20T02:21:46.193Z,20.36
2023-01-20T02:26:52.346Z,18.25
2023-01-20T02:31:58.546Z,18.03
2023-01-20T02:37:05.080Z,16.31
2023-01-20T02:42:11.193Z,17.32
2023-01-20T02:47:17.410Z,18.24
2023-01-20T02:52:23.582Z,18.01
2023-01-20T02:57:29.942Z,17.32
2023-01-20T03:02:36.063Z,17.38
2023-01-20T03:07:42.267Z,16.29
2023-01-20T03:12:48.402Z,16.42
2023-01-20T03:17:54.714Z,14.34
2023-01-20T03:23:00.808Z,13.80
2023-01-20T03:28:07.139Z,14.37
2023-01-20T03:33:13.338Z,13.32
2023-01-20T03:38:19.625Z,13.74
2023-01-20T03:43:25.685Z,11.98
2023-01-20T03:48:31.883Z,11.13
2023-01-20T03:53:38.032Z,10.50
2023-01-20T03:58:44.569Z,11.63
2023-01-20T04:03:50.680Z,12.46
2023-01-20T04:08:57.217Z,12.48
2023-01-20T04:14:03.103Z,11.35
2023-01-20T04:19:09.334Z,11.21
2023-01-20T04:24:15.379Z,12.24
2023-01-20T04:29:21.621Z,10.34
2023-01-20T04:34:27.854Z,11.56
2023-01-20T04:39:34.038Z,11.39
2023-01-20T04:44:40.156Z,10.29
2023-01-20T04:49:46.382Z,10.54
2023-01-20T04:54:52.523Z,11.24
2023-01-20T04:59:58.711Z,9.99
2023-01-20T05:05:04.779Z,11.01
2023-01-20T05:10:13.094Z,11.07
2023-01-20T05:15:17.047Z,12.56
2023-01-20T05:20:22.889Z,11.16
2023-01-20T05:25:28.954Z,10.62
2023-01-20T05:30:35.239Z,9.88
2023-01-20T05:35:41.367Z,9.93
2023-01-20T05:40:47.551Z,10.38
2023-01-20T05:45:53.625Z,10.80
2023-01-20T05:50:59.840Z,10.98
2023-01-20T05:56:06.025Z,11.73
2023-01-20T06:01:12.735Z,11.77
2023-01-20T06:06:18.702Z,11.09
2023-01-20T06:11:25.068Z,11.88
2023-01-20T06:16:31.251Z,11.98
2023-01-20T06:21:37.393Z,10.86
2023-01-20T06:26:43.834Z,12.94
2023-01-20T06:31:50.142Z,12.42
2023-01-20T06:36:56.231Z,13.14
2023-01-20T06:42:02.428Z,12.18
2023-01-20T06:47:08.484Z,12.09
2023-01-20T06:52:14.675Z,11.99
2023-01-20T06:57:20.767Z,11.31
2023-01-20T07:02:27.784Z,12.43
2023-01-20T07:07:33.830Z,11.82
2023-01-20T07:12:39.995Z,12.27
2023-01-20T07:17:46.079Z,12.33
2023-01-20T07:22:52.336Z,14.09
2023-01-20T07:27:58.481Z,11.64
2023-01-20T07:33:04.730Z,14.08
2023-01-20T07:38:10.784Z,12.35
2023-01-20T07:43:17.115Z,14.08
2023-01-20T07:48:23.342Z,13.40
2023-01-20T07:53:29.730Z,13.05
2023-01-20T07:58:35.930Z,14.93
2023-01-20T08:03:42.114Z,15.19
2023-01-20T08:08:48.549Z,13.77
2023-01-20T08:13:54.736Z,14.27
2023-01-20T08:19:00.917Z,14.25
2023-01-20T08:24:07.253Z,16.80
2023-01-20T08:29:13.347Z,14.73
2023-01-20T08:34:19.565Z,16.21
2023-01-20T08:39:25.660Z,15.21
2023-01-20T08:44:31.941Z,15.50
2023-01-20T08:49:38.004Z,14.47
2023-01-20T08:54:44.165Z,14.55
2023-01-20T08:59:50.241Z,14.38
2023-01-20T09:04:56.404Z,16.24
2023-01-20T09:10:03.250Z,14.39
2023-01-20T09:15:09.423Z,14.65
2023-01-20T09:20:15.517Z,12.94
2023-01-20T09:25:21.831Z,12.82
2023-01-20T09:30:28.007Z,13.99
2023-01-20T09:35:34.209Z,13.22
2023-01-20T09:40:40.297Z,11.91
2023-01-20T09:45:46.495Z,12.67
2023-01-20T09:50:52.572Z,12.84
2023-01-20T09:55:58.816Z,12.34
2023-01-20T10:01:04.957Z,12.14
2023-01-20T10:06:11.081Z,11.59
2023-01-20T10:11:17.176Z,11.15
2023-01-20T10:16:23.441Z,11.82
2023-01-20T10:21:29.492Z,14.34
2023-01-20T10:26:35.647Z,13.10
2023-01-20T10:31:41.898Z,14.57
2023-01-20T10:36:48.158Z,12.67
2023-01-20T10:41:54.233Z,12.06
2023-01-20T10:47:00.384Z,12.07
2023-01-20T10:52:06.428Z,12.55
2023-01-20T10:57:12.592Z,13.19
2023-01-20T11:02:18.721Z,12.34
2023-01-20T11:07:24.958Z,11.51
2023-01-20T11:12:31.120Z,10.25
2023-01-20T11:17:37.417Z,11.44
2023-01-20T11:22:43.547Z,12.36
2023-01-20T11:27:49.728Z,13.13
2023-01-20T11:32:55.912Z,11.11
2023-01-20T11:38:02.131Z,12.34
2023-01-20T11:43:08.266Z,11.36
2023-01-20T11:48:16.289Z,11.97
2023-01-20T11:53:20.106Z,12.85
2023-01-20T11:58:26.333Z,12.72
2023-01-20T12:03:32.488Z,15.34
2023-01-20T12:08:38.684Z,12.89
2023-01-20T12:13:45.586Z,14.59
2023-01-20T12:19:01.799Z,12.77
2023-01-20T12:24:57.690Z,13.07
2023-01-20T12:30:03.979Z,12.68
2023-01-20T12:35:10.020Z,11.93
2023-01-20T12:40:16.840Z,10.89
2023-01-20T12:45:21.991Z,13.25
2023-01-20T12:50:28.163Z,11.61
2023-01-20T12:55:34.241Z,11.76
2023-01-20T13:00:40.448Z,11.95
2023-01-20T13:05:46.519Z,12.30
2023-01-20T13:10:52.701Z,12.41
2023-01-20T13:15:58.875Z,12.13
2023-01-20T13:21:05.212Z,11.50
2023-01-20T13:26:11.272Z,12.20
2023-01-20T13:31:17.607Z,11.52
2023-01-20T13:36:23.609Z,11.16
2023-01-20T13:41:29.845Z,11.55
2023-01-20T13:46:35.978Z,12.10
2023-01-20T13:51:42.252Z,13.25
2023-01-20T13:56:48.360Z,12.21
2023-01-20T14:01:54.518Z,11.32
2023-01-20T14:07:00.761Z,11.15
2023-01-20T14:12:07.001Z,10.57
2023-01-20T14:17:13.063Z,12.20
2023-01-20T14:22:19.204Z,11.98
2023-01-20T14:27:25.311Z,11.22
2023-01-20T14:32:31.633Z,13.64
2023-01-20T14:37:37.829Z,14.08
2023-01-20T14:42:43.968Z,14.50
2023-01-20T14:47:50.163Z,15.76
2023-01-20T14:52:56.418Z,16.79
2023-01-20T14:58:02.557Z,16.97
2023-01-20T15:03:11.338Z,16.43
2023-01-20T15:08:14.651Z,14.59
2023-01-20T15:13:20.882Z,15.44
2023-01-20T15:18:27.064Z,17.11
2023-01-20T15:23:33.274Z,15.36
2023-01-20T15:28:39.692Z,17.71
2023-01-20T15:33:45.959Z,16.42
2023-01-20T15:38:52.090Z,13.74
2023-01-20T15:43:58.289Z,14.19
2023-01-20T15:49:04.483Z,13.57
2023-01-20T15:54:10.758Z,14.66
2023-01-20T15:59:16.900Z,15.36
2023-01-20T16:04:23.110Z,15.40
2023-01-20T16:09:29.556Z,14.11
2023-01-20T16:14:35.813Z,14.01
2023-01-20T16:19:41.935Z,14.27
2023-01-20T16:24:48.169Z,13.83
2023-01-20T16:29:54.291Z,15.23
2023-01-20T16:35:00.425Z,15.02
2023-01-20T16:40:06.539Z,15.73
2023-01-20T16:45:12.749Z,15.92
2023-01-20T16:50:18.823Z,20.15
2023-01-20T16:55:25.037Z,20.41
2023-01-20T17:00:31.307Z,21.19
2023-01-20T17:05:37.579Z,23.83
2023-01-20T17:10:43.753Z,22.65
2023-01-20T17:15:49.975Z,22.46
2023-01-20T17:20:56.050Z,23.97
2023-01-20T17:26:02.200Z,23.56
2023-01-20T17:31:08.392Z,24.52
2023-01-20T17:36:14.691Z,22.25
2023-01-20T17:41:20.830Z,24.48
2023-01-20T17:46:27.175Z,23.54
2023-01-20T17:51:33.299Z,23.91
2023-01-20T17:56:39.639Z,24.22
2023-01-20T18:01:45.695Z,24.25
2023-01-20T18:06:51.975Z,23.82
2023-01-20T18:12:07.251Z,28.82
2023-01-20T18:17:03.558Z,26.56
2023-01-20T18:22:09.588Z,31.55
2023-01-20T18:27:15.900Z,27.40
2023-01-20T18:32:22.039Z,25.23
2023-01-20T18:37:28.290Z,28.20
2023-01-20T18:42:34.409Z,30.27
2023-01-20T18:47:40.629Z,25.02
2023-01-20T18:52:46.769Z,26.03
2023-01-20T18:57:53.042Z,25.49
2023-01-20T19:02:59.100Z,27.60
2023-01-20T19:08:05.409Z,28.62
2023-01-20T19:13:11.809Z,28.36
2023-01-20T19:18:18.079Z,30.02
2023-01-20T19:23:24.168Z,29.60
2023-01-20T19:28:30.527Z,29.41
2023-01-20T19:33:36.624Z,28.10
2023-01-20T19:38:42.946Z,27.40
2023-01-20T19:43:49.474Z,30.35
2023-01-20T19:48:56.128Z,30.60
2023-01-20T19:54:02.284Z,30.57
2023-01-20T19:59:08.510Z,30.28
2023-01-20T20:04:14.654Z,28.90
2023-01-20T20:09:20.819Z,29.19
2023-01-20T20:14:26.920Z,27.65
2023-01-20T20:19:33.213Z,27.18
2023-01-20T20:24:39.522Z,26.99
2023-01-20T20:29:45.793Z,27.15
2023-01-20T20:34:51.953Z,28.57
2023-01-20T20:39:58.229Z,29.56
2023-01-20T20:45:04.402Z,28.24
2023-01-20T20:50:10.581Z,26.71
2023-01-20T20:55:16.631Z,26.86
2023-01-20T21:00:22.843Z,25.49
2023-01-20T21:05:28.997Z,25.71
2023-01-20T21:10:35.208Z,26.06
2023-01-20T21:15:41.368Z,25.72
2023-01-20T21:20:47.478Z,27.44
2023-01-20T21:25:53.573Z,27.78
2023-01-20T21:30:59.786Z,28.51
2023-01-20T21:36:05.925Z,27.41
2023-01-20T21:41:12.148Z,29.15
2023-01-20T21:46:18.308Z,28.22
2023-01-20T21:51:24.462Z,29.75
2023-01-20T21:56:30.632Z,30.25
2023-01-20T22:01:36.804Z,31.07
2023-01-20T22:06:42.959Z,29.16
2023-01-20T22:11:49.188Z,27.93
2023-01-20T22:16:55.357Z,27.91
2023-01-20T22:22:01.812Z,29.34
2023-01-20T22:27:07.936Z,26.67
2023-01-20T22:32:14.464Z,28.74
2023-01-20T22:37:20.502Z,28.22
2023-01-20T22:42:26.711Z,27.66
2023-01-20T22:47:32.828Z,26.75
2023-01-20T22:52:39.143Z,27.74
2023-01-20T22:57:45.299Z,27.20
2023-01-20T23:02:51.531Z,29.21
2023-01-20T23:07:57.664Z,27.81
2023-01-20T23:13:03.806Z,28.43
2023-01-20T23:18:09.918Z,29.09
2023-01-20T23:23:16.137Z,28.74
2023-01-20T23:28:22.201Z,31.50
2023-01-20T23:33:28.490Z,28.90
2023-01-20T23:38:34.653Z,29.11
2023-01-20T23:43:41.318Z,29.91
2023-01-20T23:48:47.439Z,27.44
2023-01-20T23:53:53.880Z,29.78
2023-01-20T23:59:00.015Z,28.43
